createdAt,value
2023-07-09T00:01:51.090Z,49.00
2023-07-09T00:04:18.895Z,49.00
2023-07-09T00:06:46.174Z,49.00
2023-07-09T00:09:14.429Z,49.00
2023-07-09T00:11:42.174Z,49.10
2023-07-09T00:14:10.155Z,49.10
2023-07-09T00:16:38.152Z,49.10
2023-07-09T00:19:06.112Z,49.10
2023-07-09T00:21:35.116Z,49.10
2023-07-09T00:24:05.912Z,49.10
2023-07-09T00:26:33.467Z,49.10
2023-07-09T00:29:01.119Z,49.10
2023-07-09T00:31:28.209Z,49.10
2023-07-09T00:33:58.229Z,49.10
2023-07-09T00:36:29.792Z,49.10
2023-07-09T00:39:00.393Z,49.10
2023-07-09T00:41:29.649Z,49.10
2023-07-09T00:43:56.554Z,49.00
2023-07-09T00:46:43.436Z,49.00
2023-07-09T00:49:11.775Z,49.10
2023-07-09T00:51:43.119Z,49.10
2023-07-09T00:54:20.181Z,49.10
2023-07-09T00:56:47.841Z,49.20
2023-07-09T00:59:17.050Z,49.20
2023-07-09T01:01:44.196Z,49.10
2023-07-09T01:04:11.526Z,49.20
2023-07-09T01:06:44.565Z,49.20
2023-07-09T01:09:11.871Z,49.30
2023-07-09T01:11:39.987Z,49.20
2023-07-09T01:14:08.512Z,49.20
2023-07-09T01:16:37.296Z,49.20
2023-07-09T01:19:05.413Z,49.20
2023-07-09T01:21:33.528Z,49.30
2023-07-09T01:24:15.454Z,49.30
2023-07-09T01:26:42.460Z,49.30
2023-07-09T01:29:09.387Z,49.30
2023-07-09T01:31:36.939Z,49.30
2023-07-09T01:34:04.010Z,49.30
2023-07-09T01:36:32.620Z,49.30
2023-07-09T01:38:59.525Z,49.30
2023-07-09T01:41:26.448Z,49.40
2023-07-09T01:43:54.040Z,49.40
2023-07-09T01:46:22.122Z,49.40
2023-07-09T01:48:51.445Z,49.40
2023-07-09T01:51:18.724Z,49.40
2023-07-09T01:53:45.842Z,49.50
2023-07-09T01:56:12.842Z,49.40
2023-07-09T01:58:43.269Z,49.40
2023-07-09T02:01:10.498Z,49.50
2023-07-09T02:03:37.615Z,49.40
2023-07-09T02:06:10.981Z,49.40
2023-07-09T02:08:38.541Z,49.50
2023-07-09T02:11:05.576Z,49.40
2023-07-09T02:13:32.645Z,49.40
2023-07-09T02:15:59.625Z,49.40
2023-07-09T02:18:27.310Z,49.50
2023-07-09T02:20:54.246Z,49.40
2023-07-09T02:23:21.161Z,49.40
2023-07-09T02:25:48.595Z,49.50
2023-07-09T02:28:15.514Z,49.40
2023-07-09T02:30:42.441Z,49.40
2023-07-09T02:33:09.397Z,50.00
2023-07-09T02:35:37.060Z,49.40
2023-07-09T02:38:04.233Z,49.40
2023-07-09T02:40:31.169Z,49.40
2023-07-09T02:42:58.120Z,49.50
2023-07-09T02:45:25.121Z,49.50
2023-07-09T02:47:52.219Z,49.50
2023-07-09T02:50:19.285Z,49.50
2023-07-09T02:52:46.332Z,49.50
2023-07-09T02:55:13.253Z,49.50
2023-07-09T02:57:40.196Z,49.50
2023-07-09T03:00:07.523Z,49.50
2023-07-09T03:02:35.365Z,49.50
2023-07-09T03:05:02.331Z,49.60
2023-07-09T03:07:29.270Z,49.60
2023-07-09T03:09:56.175Z,49.50
2023-07-09T03:12:23.180Z,49.50
2023-07-09T03:14:50.608Z,49.60
2023-07-09T03:17:17.525Z,49.60
2023-07-09T03:19:44.553Z,49.60
2023-07-09T03:22:11.487Z,49.60
2023-07-09T03:24:38.367Z,49.60
2023-07-09T03:27:05.527Z,49.60
2023-07-09T03:29:32.438Z,49.60
2023-07-09T03:31:59.392Z,49.60
2023-07-09T03:34:26.462Z,49.50
2023-07-09T03:36:53.382Z,49.50
2023-07-09T03:39:20.306Z,49.50
2023-07-09T03:41:47.261Z,49.50
2023-07-09T03:44:14.236Z,49.50
2023-07-09T03:46:41.230Z,49.40
2023-07-09T03:49:08.166Z,49.50
2023-07-09T03:51:35.104Z,49.50
2023-07-09T03:54:02.073Z,49.40
2023-07-09T03:56:28.976Z,49.40
2023-07-09T03:58:55.911Z,49.40
2023-07-09T04:01:23.250Z,49.30
2023-07-09T04:03:50.294Z,49.30
2023-07-09T04:06:17.313Z,49.20
2023-07-09T04:08:44.300Z,49.20
2023-07-09T04:11:11.375Z,49.20
2023-07-09T04:13:38.373Z,49.10
2023-07-09T04:16:05.777Z,49.10
2023-07-09T04:18:32.947Z,49.10
2023-07-09T04:20:59.886Z,49.10
2023-07-09T04:23:26.778Z,49.00
2023-07-09T04:25:53.785Z,48.90
2023-07-09T04:28:20.700Z,49.00
2023-07-09T04:30:49.243Z,48.90
2023-07-09T04:33:18.726Z,48.90
2023-07-09T04:35:47.352Z,48.80
2023-07-09T04:38:14.844Z,48.90
2023-07-09T04:40:42.018Z,48.90
2023-07-09T04:43:09.011Z,49.00
2023-07-09T04:45:36.047Z,49.20
2023-07-09T04:48:03.066Z,49.50
2023-07-09T04:50:30.044Z,49.90
2023-07-09T04:52:56.969Z,50.60
2023-07-09T04:55:24.005Z,49.80
2023-07-09T04:57:51.356Z,49.50
2023-07-09T05:00:18.471Z,49.10
2023-07-09T05:02:45.773Z,49.50
2023-07-09T05:05:13.244Z,49.50
2023-07-09T05:07:40.752Z,49.70
2023-07-09T05:10:08.301Z,49.90
2023-07-09T05:12:35.322Z,49.70
2023-07-09T05:15:02.264Z,50.20
2023-07-09T05:17:29.206Z,50.90
2023-07-09T05:19:56.148Z,51.00
2023-07-09T05:22:23.108Z,51.70
2023-07-09T05:24:50.028Z,52.40
2023-07-09T05:27:16.938Z,52.50
2023-07-09T05:29:43.867Z,53.10
2023-07-09T05:32:10.754Z,53.90
2023-07-09T05:34:37.671Z,53.90
2023-07-09T05:37:04.772Z,54.70
2023-07-09T05:39:31.662Z,55.10
2023-07-09T05:41:58.759Z,55.40
2023-07-09T05:44:25.652Z,55.40
2023-07-09T05:46:52.616Z,55.50
2023-07-09T05:49:19.667Z,55.50
2023-07-09T05:51:46.695Z,55.20
2023-07-09T05:54:13.583Z,55.10
2023-07-09T05:56:40.639Z,55.10
2023-07-09T05:59:07.518Z,55.00
2023-07-09T06:01:34.519Z,55.30
2023-07-09T06:04:01.727Z,55.30
2023-07-09T06:06:28.748Z,55.50
2023-07-09T06:08:55.732Z,55.40
2023-07-09T06:11:22.745Z,55.20
2023-07-09T06:13:49.777Z,55.40
2023-07-09T06:16:17.434Z,55.50
2023-07-09T06:18:44.390Z,55.60
2023-07-09T06:21:12.841Z,56.10
2023-07-09T06:23:40.047Z,56.10
2023-07-09T06:26:07.212Z,56.00
2023-07-09T06:28:34.148Z,55.80
2023-07-09T06:31:01.651Z,56.00
2023-07-09T06:33:29.487Z,55.70
2023-07-09T06:35:58.395Z,55.90
2023-07-09T06:38:25.576Z,55.90
2023-07-09T06:40:58.255Z,55.70
2023-07-09T06:43:25.315Z,56.00
2023-07-09T06:45:57.308Z,56.10
2023-07-09T06:48:25.308Z,56.80
2023-07-09T06:50:53.220Z,56.30
2023-07-09T06:53:21.556Z,56.50
2023-07-09T06:55:50.239Z,56.50
2023-07-09T06:58:17.717Z,56.70
2023-07-09T07:00:44.726Z,57.00
2023-07-09T07:03:11.937Z,56.90
2023-07-09T07:05:43.788Z,57.00
2023-07-09T07:08:10.770Z,57.20
2023-07-09T07:10:37.722Z,57.10
2023-07-09T07:13:04.713Z,57.40
2023-07-09T07:15:31.845Z,57.30
2023-07-09T07:17:58.937Z,57.30
2023-07-09T07:20:25.909Z,57.60
2023-07-09T07:22:52.859Z,57.40
2023-07-09T07:25:19.806Z,57.60
2023-07-09T07:27:46.780Z,57.70
2023-07-09T07:30:13.838Z,58.30
2023-07-09T07:32:45.512Z,57.80
2023-07-09T07:35:12.570Z,57.90
2023-07-09T07:37:39.594Z,58.10
2023-07-09T07:40:07.020Z,58.20
2023-07-09T07:42:34.195Z,58.30
2023-07-09T07:45:01.214Z,58.10
2023-07-09T07:47:28.619Z,58.30
2023-07-09T07:49:55.764Z,58.30
2023-07-09T07:52:23.044Z,58.10
2023-07-09T07:54:50.567Z,58.40
2023-07-09T07:57:17.513Z,58.30
2023-07-09T07:59:44.487Z,58.40
2023-07-09T08:02:15.177Z,58.30
2023-07-09T08:04:42.577Z,58.20
2023-07-09T08:07:10.383Z,58.40
2023-07-09T08:09:37.544Z,58.40
2023-07-09T08:12:10.736Z,58.40
2023-07-09T08:14:38.992Z,58.50
2023-07-09T08:17:06.459Z,58.40
2023-07-09T08:19:33.900Z,58.40
2023-07-09T08:22:00.876Z,58.40
2023-07-09T08:24:27.804Z,58.20
2023-07-09T08:26:54.803Z,58.10
2023-07-09T08:29:21.782Z,57.80
2023-07-09T08:31:48.728Z,57.80
2023-07-09T08:34:15.728Z,57.90
2023-07-09T08:36:42.614Z,57.80
2023-07-09T08:39:09.692Z,57.80
2023-07-09T08:41:59.341Z,57.80
2023-07-09T08:44:35.322Z,57.80
2023-07-09T08:47:07.552Z,57.70
2023-07-09T08:49:38.673Z,57.70
2023-07-09T08:52:11.261Z,57.70
2023-07-09T08:54:38.299Z,57.60
2023-07-09T08:57:15.747Z,57.60
2023-07-09T08:59:42.985Z,57.40
2023-07-09T09:02:17.742Z,57.30
2023-07-09T09:04:45.623Z,57.10
2023-07-09T09:07:20.751Z,57.00
2023-07-09T09:09:54.253Z,56.90
2023-07-09T09:12:23.305Z,56.80
2023-07-09T09:14:57.536Z,56.90
2023-07-09T09:17:26.884Z,56.80
2023-07-09T09:19:58.139Z,56.80
2023-07-09T09:22:27.803Z,56.80
2023-07-09T09:25:04.983Z,56.70
2023-07-09T09:27:31.903Z,56.60
2023-07-09T09:29:58.879Z,56.70
2023-07-09T09:32:31.023Z,56.50
2023-07-09T09:34:58.408Z,56.50
2023-07-09T09:37:30.269Z,56.40
2023-07-09T09:40:13.132Z,56.50
2023-07-09T09:42:44.287Z,56.50
2023-07-09T09:45:14.178Z,57.00
2023-07-09T09:47:41.210Z,56.60
2023-07-09T09:50:10.930Z,57.20
2023-07-09T09:52:38.598Z,57.20
2023-07-09T09:55:25.085Z,56.90
2023-07-09T09:57:53.110Z,56.80
2023-07-09T10:00:22.799Z,56.70
2023-07-09T10:02:50.141Z,56.60
2023-07-09T10:05:17.583Z,56.50
2023-07-09T10:07:46.829Z,56.50
2023-07-09T10:10:21.485Z,56.30
2023-07-09T10:12:53.091Z,56.30
2023-07-09T10:15:35.768Z,56.10
2023-07-09T10:18:23.259Z,56.00
2023-07-09T10:21:00.929Z,55.90
2023-07-09T10:23:30.836Z,55.70
2023-07-09T10:26:12.470Z,55.70
2023-07-09T10:29:00.094Z,55.90
2023-07-09T10:31:35.156Z,55.40
2023-07-09T10:34:22.053Z,55.20
2023-07-09T10:36:59.116Z,54.90
2023-07-09T10:39:33.623Z,54.70
2023-07-09T10:42:01.207Z,54.70
2023-07-09T10:44:34.576Z,54.30
2023-07-09T10:47:08.342Z,54.50
2023-07-09T10:49:37.840Z,54.30
2023-07-09T10:52:12.253Z,54.40
2023-07-09T10:54:42.758Z,54.30
2023-07-09T10:57:13.323Z,54.30
2023-07-09T10:59:41.498Z,54.30
2023-07-09T11:02:24.956Z,54.30
2023-07-09T11:05:00.017Z,54.40
2023-07-09T11:07:30.865Z,54.50
2023-07-09T11:09:59.187Z,54.40
2023-07-09T11:12:30.860Z,54.40
2023-07-09T11:15:02.532Z,54.40
2023-07-09T11:17:30.545Z,54.50
2023-07-09T11:20:01.298Z,54.40
2023-07-09T11:22:37.164Z,54.60
2023-07-09T11:25:14.705Z,54.60
2023-07-09T11:27:51.241Z,54.50
2023-07-09T11:30:21.794Z,54.50
2023-07-09T11:32:49.500Z,54.60
2023-07-09T11:35:24.242Z,55.00
2023-07-09T11:37:51.366Z,54.80
2023-07-09T11:40:20.809Z,55.00
2023-07-09T11:42:49.558Z,55.30
2023-07-09T11:45:18.954Z,55.30
2023-07-09T11:47:47.318Z,55.30
2023-07-09T11:50:23.344Z,55.40
2023-07-09T11:52:59.235Z,55.20
2023-07-09T11:55:30.515Z,55.10
2023-07-09T11:57:58.569Z,55.40
2023-07-09T12:00:26.659Z,55.10
2023-07-09T12:02:53.718Z,55.40
2023-07-09T12:05:22.476Z,55.30
2023-07-09T12:07:49.775Z,55.30
2023-07-09T12:10:22.173Z,55.20
2023-07-09T12:12:49.313Z,55.20
2023-07-09T12:15:20.912Z,55.20
2023-07-09T12:17:58.735Z,55.30
2023-07-09T12:20:26.308Z,55.20
2023-07-09T12:22:53.283Z,55.40
2023-07-09T12:25:23.398Z,55.30
2023-07-09T12:27:50.716Z,55.30
2023-07-09T12:30:17.935Z,55.30
2023-07-09T12:32:46.814Z,55.20
2023-07-09T12:35:15.531Z,55.10
2023-07-09T12:37:43.588Z,55.30
2023-07-09T12:40:14.618Z,55.30
2023-07-09T12:42:42.905Z,55.30
2023-07-09T12:45:15.449Z,55.40
2023-07-09T12:47:42.488Z,55.30
2023-07-09T12:50:30.517Z,55.30
2023-07-09T12:52:58.677Z,55.50
2023-07-09T12:55:26.813Z,55.30
2023-07-09T12:57:58.020Z,55.30
2023-07-09T13:00:30.113Z,55.30
2023-07-09T13:02:59.115Z,55.10
2023-07-09T13:05:27.282Z,55.20
2023-07-09T13:07:55.404Z,55.30
2023-07-09T13:10:27.897Z,55.20
2023-07-09T13:13:05.344Z,55.30
2023-07-09T13:15:39.490Z,55.20
2023-07-09T13:18:08.313Z,55.60
2023-07-09T13:20:37.971Z,55.20
2023-07-09T13:23:09.616Z,55.10
2023-07-09T13:25:46.607Z,55.30
2023-07-09T13:28:23.513Z,55.30
2023-07-09T13:30:52.266Z,55.30
2023-07-09T13:33:19.275Z,55.30
2023-07-09T13:35:46.844Z,55.30
2023-07-09T13:38:14.794Z,55.30
2023-07-09T13:40:42.373Z,55.40
2023-07-09T13:43:12.777Z,55.20
2023-07-09T13:45:41.047Z,55.40
2023-07-09T13:48:14.593Z,55.20
2023-07-09T13:50:41.671Z,55.20
2023-07-09T13:53:14.768Z,55.00
2023-07-09T13:55:42.942Z,55.10
2023-07-09T13:58:11.144Z,55.30
2023-07-09T14:00:38.325Z,55.10
2023-07-09T14:03:09.346Z,55.20
2023-07-09T14:05:36.418Z,59.10
2023-07-09T14:08:03.388Z,60.70
2023-07-09T14:10:30.488Z,61.00
2023-07-09T14:12:58.051Z,61.20
2023-07-09T14:15:24.978Z,61.00
2023-07-09T14:17:52.877Z,60.90
2023-07-09T14:20:25.336Z,60.70
2023-07-09T14:22:52.325Z,60.80
2023-07-09T14:25:22.099Z,60.80
2023-07-09T14:27:50.069Z,60.80
2023-07-09T14:30:19.005Z,60.70
2023-07-09T14:32:47.382Z,60.80
2023-07-09T14:35:19.188Z,60.80
2023-07-09T14:37:46.850Z,60.60
2023-07-09T14:40:14.168Z,60.30
2023-07-09T14:42:42.079Z,60.00
2023-07-09T14:45:24.756Z,59.90
2023-07-09T14:47:52.526Z,59.50
2023-07-09T14:50:19.801Z,59.20
2023-07-09T14:52:47.730Z,58.70
2023-07-09T14:55:18.946Z,58.40
2023-07-09T14:57:46.381Z,57.80
2023-07-09T15:00:14.206Z,57.30
2023-07-09T15:02:42.463Z,57.00
2023-07-09T15:05:18.211Z,56.40
2023-07-09T15:07:46.392Z,56.00
2023-07-09T15:10:14.184Z,55.60
2023-07-09T15:12:41.843Z,55.20
2023-07-09T15:15:27.205Z,54.60
2023-07-09T15:17:54.348Z,54.20
2023-07-09T15:20:23.884Z,53.50
2023-07-09T15:22:51.582Z,53.00
2023-07-09T15:25:29.015Z,52.50
2023-07-09T15:27:57.594Z,52.20
2023-07-09T15:30:26.584Z,51.70
2023-07-09T15:32:57.252Z,51.10
2023-07-09T15:35:24.673Z,50.70
2023-07-09T15:37:51.593Z,50.50
2023-07-09T15:40:33.491Z,50.10
2023-07-09T15:43:04.266Z,49.80
2023-07-09T15:45:31.170Z,49.60
2023-07-09T15:47:58.275Z,49.30
2023-07-09T15:50:27.773Z,49.00
2023-07-09T15:52:55.071Z,48.70
2023-07-09T15:55:23.384Z,48.40
2023-07-09T15:57:51.571Z,48.20
2023-07-09T16:00:20.568Z,47.90
2023-07-09T16:02:48.186Z,47.70
2023-07-09T16:05:25.979Z,47.50
2023-07-09T16:07:54.815Z,47.30
2023-07-09T16:10:23.156Z,47.10
2023-07-09T16:12:51.272Z,46.90
2023-07-09T16:15:19.267Z,46.70
2023-07-09T16:17:47.024Z,46.60
2023-07-09T16:20:15.171Z,46.40
2023-07-09T16:22:42.687Z,46.30
2023-07-09T16:25:13.569Z,46.20
2023-07-09T16:27:40.509Z,46.00
2023-07-09T16:30:13.123Z,45.90
2023-07-09T16:32:40.198Z,45.70
2023-07-09T16:35:07.346Z,45.50
2023-07-09T16:37:34.370Z,45.50
2023-07-09T16:40:02.144Z,45.40
2023-07-09T16:42:29.138Z,45.20
2023-07-09T16:44:56.138Z,45.10
2023-07-09T16:47:23.158Z,44.90
2023-07-09T16:49:50.421Z,44.90
2023-07-09T16:52:20.030Z,44.70
2023-07-09T16:54:47.361Z,44.70
2023-07-09T16:57:18.084Z,44.60
2023-07-09T16:59:45.515Z,44.40
2023-07-09T17:02:27.070Z,44.40
2023-07-09T17:04:54.535Z,44.30
2023-07-09T17:07:21.476Z,44.30
2023-07-09T17:09:48.847Z,44.20
2023-07-09T17:12:16.868Z,44.10
2023-07-09T17:14:43.793Z,44.00
2023-07-09T17:17:14.904Z,43.90
2023-07-09T17:19:42.024Z,44.00
2023-07-09T17:22:24.717Z,43.90
2023-07-09T17:24:52.268Z,43.90
2023-07-09T17:27:19.230Z,43.80
2023-07-09T17:29:46.358Z,43.80
2023-07-09T17:32:15.754Z,43.70
2023-07-09T17:34:42.869Z,43.80
2023-07-09T17:37:14.067Z,43.80
2023-07-09T17:39:40.970Z,43.80
2023-07-09T17:42:15.496Z,43.80
2023-07-09T17:44:44.575Z,43.80
2023-07-09T17:47:17.461Z,43.90
2023-07-09T17:49:45.273Z,43.90
2023-07-09T17:52:19.218Z,43.90
2023-07-09T17:54:46.231Z,43.90
2023-07-09T17:57:15.650Z,44.00
2023-07-09T17:59:43.273Z,44.00
2023-07-09T18:02:18.009Z,44.10
2023-07-09T18:04:44.930Z,44.20
2023-07-09T18:07:18.792Z,44.20
2023-07-09T18:09:46.365Z,44.30
2023-07-09T18:12:14.233Z,44.50
2023-07-09T18:14:43.676Z,44.60
2023-07-09T18:17:18.757Z,44.80
2023-07-09T18:19:45.816Z,44.80
2023-07-09T18:22:15.280Z,44.90
2023-07-09T18:24:43.895Z,45.00
2023-07-09T18:27:14.915Z,45.10
2023-07-09T18:29:42.364Z,45.20
2023-07-09T18:32:15.418Z,45.30
2023-07-09T18:34:42.296Z,45.30
2023-07-09T18:37:09.220Z,45.40
2023-07-09T18:39:36.145Z,45.50
2023-07-09T18:42:04.520Z,45.50
2023-07-09T18:44:33.229Z,45.60
2023-07-09T18:47:00.297Z,45.70
2023-07-09T18:49:28.424Z,45.80
2023-07-09T18:51:55.383Z,45.90
2023-07-09T18:54:22.970Z,45.90
2023-07-09T18:56:50.127Z,46.00
2023-07-09T18:59:18.934Z,46.00
2023-07-09T19:01:46.569Z,46.10
2023-07-09T19:04:17.981Z,46.10
2023-07-09T19:06:45.241Z,46.20
2023-07-09T19:09:16.476Z,46.20
2023-07-09T19:11:43.416Z,46.30
2023-07-09T19:14:10.691Z,46.30
2023-07-09T19:16:37.990Z,46.30
2023-07-09T19:19:06.407Z,46.40
2023-07-09T19:21:33.352Z,46.40
2023-07-09T19:24:01.017Z,46.50
2023-07-09T19:26:28.068Z,46.50
2023-07-09T19:28:55.058Z,46.50
2023-07-09T19:31:22.183Z,46.50
2023-07-09T19:33:49.212Z,46.60
2023-07-09T19:36:21.294Z,46.60
2023-07-09T19:38:48.262Z,46.70
2023-07-09T19:41:15.822Z,46.70
2023-07-09T19:43:42.738Z,46.80
2023-07-09T19:46:16.852Z,46.80
2023-07-09T19:48:43.820Z,46.90
2023-07-09T19:51:10.754Z,47.00
2023-07-09T19:53:37.692Z,47.00
2023-07-09T19:56:05.068Z,47.10
2023-07-09T19:58:32.273Z,47.20
2023-07-09T20:00:59.638Z,47.20
2023-07-09T20:03:28.281Z,47.30
2023-07-09T20:05:56.278Z,47.40
2023-07-09T20:08:24.351Z,47.40
2023-07-09T20:10:52.034Z,47.50
2023-07-09T20:13:25.016Z,47.50
2023-07-09T20:15:52.132Z,47.60
2023-07-09T20:18:20.021Z,47.80
2023-07-09T20:20:51.593Z,47.80
2023-07-09T20:23:18.579Z,47.90
2023-07-09T20:25:46.821Z,47.90
2023-07-09T20:28:25.666Z,48.00
2023-07-09T20:30:53.266Z,48.00
2023-07-09T20:33:20.308Z,48.10
2023-07-09T20:35:47.670Z,48.10
2023-07-09T20:38:16.083Z,48.10
2023-07-09T20:40:44.350Z,48.20
2023-07-09T20:43:18.240Z,48.20
2023-07-09T20:45:45.778Z,48.20
2023-07-09T20:48:12.873Z,48.30
2023-07-09T20:50:42.872Z,48.30
2023-07-09T20:53:14.355Z,48.40
2023-07-09T20:55:43.275Z,48.40
2023-07-09T20:58:22.014Z,48.40
2023-07-09T21:00:49.749Z,48.40
2023-07-09T21:03:18.295Z,48.40
2023-07-09T21:05:46.871Z,48.40
2023-07-09T21:08:15.508Z,48.40
2023-07-09T21:10:42.823Z,48.40
2023-07-09T21:13:11.938Z,48.50
2023-07-09T21:15:39.138Z,48.40
2023-07-09T21:18:07.432Z,48.50
2023-07-09T21:20:34.380Z,48.60
2023-07-09T21:23:01.737Z,48.50
2023-07-09T21:25:28.608Z,48.50
2023-07-09T21:27:55.607Z,48.50
2023-07-09T21:30:23.016Z,48.60
2023-07-09T21:32:50.563Z,48.60
2023-07-09T21:35:19.644Z,48.60
2023-07-09T21:37:46.897Z,48.60
2023-07-09T21:40:31.443Z,48.70
2023-07-09T21:43:00.187Z,48.70
2023-07-09T21:45:31.246Z,48.80
2023-07-09T21:47:59.573Z,48.80
2023-07-09T21:50:26.597Z,48.90
2023-07-09T21:52:53.572Z,48.90
2023-07-09T21:55:22.369Z,48.90
2023-07-09T21:57:49.694Z,48.90
2023-07-09T22:00:20.772Z,48.90
2023-07-09T22:02:49.213Z,49.00
2023-07-09T22:05:22.445Z,49.00
2023-07-09T22:07:50.065Z,49.10
2023-07-09T22:10:18.352Z,49.10
2023-07-09T22:12:49.073Z,49.00
2023-07-09T22:15:18.733Z,49.10
2023-07-09T22:17:45.751Z,49.10
2023-07-09T22:20:12.921Z,49.10
2023-07-09T22:22:40.284Z,49.20
2023-07-09T22:25:13.801Z,49.20
2023-07-09T22:27:40.818Z,49.20
2023-07-09T22:30:08.090Z,49.20
2023-07-09T22:32:35.247Z,49.30
2023-07-09T22:35:03.262Z,49.20
2023-07-09T22:37:31.334Z,49.20
2023-07-09T22:39:58.279Z,49.30
2023-07-09T22:42:25.208Z,49.30
2023-07-09T22:44:52.122Z,49.30
2023-07-09T22:47:20.469Z,49.40
2023-07-09T22:49:47.931Z,49.40
2023-07-09T22:52:16.546Z,49.40
2023-07-09T22:54:44.342Z,49.40
2023-07-09T22:57:11.219Z,49.50
2023-07-09T22:59:38.143Z,49.40
2023-07-09T23:02:09.751Z,49.40
2023-07-09T23:04:36.850Z,49.40
2023-07-09T23:07:10.248Z,49.50
2023-07-09T23:09:37.200Z,49.50
2023-07-09T23:12:04.602Z,49.50
2023-07-09T23:14:32.795Z,49.50
2023-07-09T23:17:00.105Z,49.50
2023-07-09T23:19:29.143Z,49.50
2023-07-09T23:21:56.943Z,49.50
2023-07-09T23:24:23.874Z,49.50
2023-07-09T23:26:52.108Z,49.50
2023-07-09T23:29:19.678Z,49.50
2023-07-09T23:31:47.732Z,49.60
2023-07-09T23:34:16.701Z,49.50
2023-07-09T23:36:46.791Z,49.60
2023-07-09T23:39:14.219Z,49.50
2023-07-09T23:41:43.848Z,49.60
2023-07-09T23:44:15.417Z,49.60
2023-07-09T23:46:42.545Z,49.60
2023-07-09T23:49:26.472Z,49.60
2023-07-09T23:51:54.268Z,49.60
2023-07-09T23:54:21.244Z,49.60
2023-07-09T23:56:49.938Z,49.60
2023-07-09T23:59:19.139Z,49.60
